createdAt,value
2017-07-05T00:01:47.819Z,99.90
2017-07-05T00:04:18.124Z,99.90
2017-07-05T00:06:47.920Z,99.90
2017-07-05T00:09:16.424Z,99.90
2017-07-05T00:11:47.024Z,99.90
2017-07-05T00:14:16.411Z,99.90
2017-07-05T00:16:45.347Z,99.90
2017-07-05T00:19:15.040Z,99.90
2017-07-05T00:21:44.655Z,99.90
2017-07-05T00:24:14.723Z,99.90
2017-07-05T00:26:45.488Z,99.90
2017-07-05T00:29:16.912Z,99.90
2017-07-05T00:31:46.912Z,99.90
2017-07-05T00:34:16.823Z,99.90
2017-07-05T00:36:47.412Z,99.90
2017-07-05T00:39:17.892Z,99.90
2017-07-05T00:41:47.265Z,99.90
2017-07-05T00:44:17.384Z,99.90
2017-07-05T00:46:47.100Z,99.90
2017-07-05T00:49:15.895Z,99.90
2017-07-05T00:51:47.084Z,99.90
2017-07-05T00:54:17.624Z,99.90
2017-07-05T00:56:46.963Z,99.90
2017-07-05T00:59:17.228Z,99.90
2017-07-05T01:01:46.364Z,99.90
2017-07-05T01:04:16.600Z,99.90
2017-07-05T01:06:46.811Z,99.90
2017-07-05T01:09:17.844Z,99.90
2017-07-05T01:11:46.657Z,99.90
2017-07-05T01:14:16.532Z,99.90
2017-07-05T01:16:45.748Z,99.90
2017-07-05T01:19:14.576Z,99.90
2017-07-05T01:21:44.132Z,99.90
2017-07-05T01:24:14.796Z,99.90
2017-07-05T01:26:45.682Z,99.90
2017-07-05T01:29:16.987Z,99.90
2017-07-05T01:31:48.039Z,99.90
2017-07-05T01:34:17.779Z,99.90
2017-07-05T01:36:47.604Z,99.90
2017-07-05T01:39:17.592Z,99.90
2017-07-05T01:41:47.122Z,99.90
2017-07-05T01:44:15.891Z,99.90
2017-07-05T01:46:45.388Z,99.90
2017-07-05T01:49:14.927Z,99.90
2017-07-05T01:51:45.528Z,99.90
2017-07-05T01:54:15.616Z,99.90
2017-07-05T01:56:44.316Z,99.90
2017-07-05T01:59:13.791Z,99.90
2017-07-05T02:01:43.662Z,99.90
2017-07-05T02:04:13.408Z,99.90
2017-07-05T02:06:43.396Z,99.90
2017-07-05T02:09:12.651Z,99.90
2017-07-05T02:11:42.840Z,99.90
2017-07-05T02:14:12.764Z,99.90
2017-07-05T02:16:42.624Z,99.90
2017-07-05T02:19:12.283Z,99.90
2017-07-05T02:24:16.659Z,99.90
2017-07-05T02:26:46.531Z,99.90
2017-07-05T02:29:17.739Z,99.90
2017-07-05T02:31:47.688Z,99.90
2017-07-05T02:34:17.163Z,99.90
2017-07-05T02:36:47.188Z,99.90
2017-07-05T02:39:17.448Z,99.90
2017-07-05T02:41:46.467Z,99.90
2017-07-05T02:44:17.964Z,99.90
2017-07-05T02:46:46.921Z,99.90
2017-07-05T02:49:17.683Z,99.90
2017-07-05T02:51:46.707Z,99.90
2017-07-05T02:54:15.644Z,99.90
2017-07-05T02:56:44.635Z,99.90
2017-07-05T02:59:14.439Z,99.90
2017-07-05T03:01:44.380Z,99.90
2017-07-05T03:04:14.088Z,99.90
2017-07-05T03:06:44.384Z,99.90
2017-07-05T03:09:12.544Z,99.90
2017-07-05T03:11:41.779Z,99.90
2017-07-05T03:14:12.083Z,99.90
2017-07-05T03:16:41.958Z,99.90
2017-07-05T03:19:12.040Z,99.90
2017-07-05T03:21:43.448Z,99.90
2017-07-05T03:24:12.515Z,99.60
2017-07-05T03:26:41.371Z,99.20
2017-07-05T03:29:11.959Z,98.60
2017-07-05T03:31:42.343Z,97.90
2017-07-05T03:34:11.959Z,97.70
2017-07-05T03:36:42.214Z,97.60
2017-07-05T03:39:11.067Z,97.40
2017-07-05T03:41:40.309Z,96.90
2017-07-05T03:44:11.762Z,96.80
2017-07-05T03:46:43.187Z,96.10
2017-07-05T03:49:12.465Z,95.90
2017-07-05T03:51:41.927Z,95.40
2017-07-05T03:54:11.536Z,93.80
2017-07-05T03:56:42.361Z,93.40
2017-07-05T03:59:14.623Z,93.30
2017-07-05T04:01:43.472Z,93.20
2017-07-05T04:04:14.016Z,92.60
2017-07-05T04:06:44.227Z,90.50
2017-07-05T04:09:13.491Z,90.50
2017-07-05T04:11:44.968Z,88.90
2017-07-05T04:14:16.436Z,88.90
2017-07-05T04:16:47.316Z,87.50
2017-07-05T04:19:16.715Z,87.50
2017-07-05T04:21:45.960Z,86.70
2017-07-05T04:24:17.551Z,85.30
2017-07-05T04:26:48.353Z,84.80
2017-07-05T04:29:17.992Z,83.40
2017-07-05T04:31:49.256Z,83.10
2017-07-05T04:34:19.045Z,82.10
2017-07-05T04:36:48.888Z,81.20
2017-07-05T04:39:17.607Z,80.80
2017-07-05T04:41:48.536Z,78.60
2017-07-05T04:44:18.436Z,76.60
2017-07-05T04:46:48.143Z,75.70
2017-07-05T04:49:16.816Z,72.90
2017-07-05T04:51:47.692Z,69.10
2017-07-05T04:54:18.039Z,69.00
2017-07-05T04:56:48.139Z,62.90
2017-07-05T04:59:17.107Z,58.40
2017-07-05T05:01:45.968Z,54.10
2017-07-05T05:04:14.247Z,53.30
2017-07-05T05:06:43.905Z,48.30
2017-07-05T05:09:12.843Z,48.20
2017-07-05T05:11:42.149Z,48.60
2017-07-05T05:14:10.491Z,49.80
2017-07-05T05:16:38.979Z,49.80
2017-07-05T05:19:08.523Z,49.50
2017-07-05T05:21:39.167Z,50.10
2017-07-05T05:24:09.359Z,50.60
2017-07-05T05:26:39.800Z,50.60
2017-07-05T05:29:07.955Z,49.10
2017-07-05T05:31:38.096Z,47.10
2017-07-05T05:34:07.640Z,45.40
2017-07-05T05:36:37.120Z,44.70
2017-07-05T05:39:06.092Z,43.20
2017-07-05T05:41:35.635Z,42.20
2017-07-05T05:44:04.503Z,41.10
2017-07-05T05:46:34.596Z,42.80
2017-07-05T05:49:03.807Z,42.70
2017-07-05T05:51:34.428Z,42.30
2017-07-05T05:54:03.554Z,40.00
2017-07-05T05:56:33.724Z,40.20
2017-07-05T05:59:02.573Z,40.60
2017-07-05T06:01:32.820Z,39.40
2017-07-05T06:04:01.690Z,38.70
2017-07-05T06:06:30.876Z,39.30
2017-07-05T06:09:00.499Z,38.40
2017-07-05T06:11:30.800Z,38.50
2017-07-05T06:13:59.816Z,38.50
2017-07-05T06:16:30.059Z,36.60
2017-07-05T06:18:59.761Z,36.00
2017-07-05T06:21:29.327Z,32.60
2017-07-05T06:23:59.236Z,30.90
2017-07-05T06:26:28.087Z,29.60
2017-07-05T06:28:57.540Z,28.90
2017-07-05T06:31:25.852Z,28.80
2017-07-05T06:33:56.371Z,28.70
2017-07-05T06:36:25.964Z,30.00
2017-07-05T06:38:55.284Z,30.00
2017-07-05T06:41:25.511Z,33.00
2017-07-05T06:43:55.224Z,34.50
2017-07-05T06:46:25.508Z,37.40
2017-07-05T06:48:55.431Z,40.90
2017-07-05T06:51:25.001Z,41.70
2017-07-05T06:53:54.946Z,42.60
2017-07-05T06:56:23.619Z,41.10
2017-07-05T06:58:54.577Z,40.80
2017-07-05T07:01:25.328Z,41.50
2017-07-05T07:03:53.528Z,43.10
2017-07-05T07:06:24.793Z,44.10
2017-07-05T07:08:56.123Z,44.10
2017-07-05T07:11:26.304Z,43.80
2017-07-05T07:13:55.959Z,43.30
2017-07-05T07:16:26.971Z,41.10
2017-07-05T07:18:56.023Z,41.00
2017-07-05T07:21:25.636Z,39.10
2017-07-05T07:23:56.587Z,38.60
2017-07-05T07:26:26.717Z,38.70
2017-07-05T07:28:57.068Z,40.10
2017-07-05T07:31:27.368Z,40.30
2017-07-05T07:33:56.284Z,40.90
2017-07-05T07:36:25.808Z,40.90
2017-07-05T07:38:57.796Z,39.30
2017-07-05T07:41:26.416Z,39.30
2017-07-05T07:43:55.660Z,40.20
2017-07-05T07:46:25.351Z,42.40
2017-07-05T07:48:56.415Z,44.30
2017-07-05T07:51:26.260Z,44.90
2017-07-05T07:53:55.552Z,45.80
2017-07-05T07:56:25.335Z,46.80
2017-07-05T07:58:54.906Z,47.70
2017-07-05T08:01:25.411Z,48.90
2017-07-05T08:03:55.158Z,49.40
2017-07-05T08:06:23.880Z,49.90
2017-07-05T08:08:54.720Z,50.40
2017-07-05T08:11:25.188Z,48.80
2017-07-05T08:13:54.639Z,48.70
2017-07-05T08:16:24.932Z,49.20
2017-07-05T08:18:54.091Z,49.80
2017-07-05T08:21:24.227Z,48.80
2017-07-05T08:23:54.047Z,48.70
2017-07-05T08:26:24.056Z,50.10
2017-07-05T08:28:54.853Z,50.50
2017-07-05T08:31:25.068Z,52.20
2017-07-05T08:33:54.137Z,53.10
2017-07-05T08:36:23.330Z,53.80
2017-07-05T08:38:53.208Z,55.80
2017-07-05T08:41:23.160Z,57.30
2017-07-05T08:43:51.805Z,58.60
2017-07-05T08:46:23.981Z,59.20
2017-07-05T08:48:56.220Z,61.20
2017-07-05T08:51:25.080Z,61.10
2017-07-05T08:53:55.183Z,62.80
2017-07-05T08:56:25.079Z,65.20
2017-07-05T08:58:55.141Z,65.40
2017-07-05T09:01:25.720Z,65.40
2017-07-05T09:03:55.571Z,64.30
2017-07-05T09:06:25.451Z,65.30
2017-07-05T09:08:55.678Z,68.70
2017-07-05T09:11:24.779Z,67.70
2017-07-05T09:13:54.663Z,67.50
2017-07-05T09:16:24.711Z,66.80
2017-07-05T09:18:54.192Z,66.80
2017-07-05T09:21:23.732Z,67.00
2017-07-05T09:23:54.424Z,66.80
2017-07-05T09:26:26.716Z,68.00
2017-07-05T09:28:55.919Z,67.10
2017-07-05T09:31:25.020Z,65.40
2017-07-05T09:33:53.979Z,65.30
2017-07-05T09:36:24.751Z,69.10
2017-07-05T09:38:53.767Z,69.00
2017-07-05T09:41:22.479Z,68.60
2017-07-05T09:43:51.099Z,70.60
2017-07-05T09:46:22.051Z,69.20
2017-07-05T09:48:50.647Z,67.20
2017-07-05T09:51:20.271Z,67.10
2017-07-05T09:53:49.779Z,69.80
2017-07-05T09:56:19.887Z,68.70
2017-07-05T09:58:50.929Z,69.80
2017-07-05T10:01:20.233Z,68.90
2017-07-05T10:03:49.827Z,67.00
2017-07-05T10:06:19.252Z,65.90
2017-07-05T10:08:49.012Z,71.30
2017-07-05T10:11:17.499Z,72.10
2017-07-05T10:13:46.995Z,72.80
2017-07-05T10:16:16.343Z,76.50
2017-07-05T10:18:47.441Z,77.90
2017-07-05T10:21:16.464Z,81.10
2017-07-05T10:23:46.449Z,79.10
2017-07-05T10:26:15.703Z,78.90
2017-07-05T10:28:45.804Z,78.20
2017-07-05T10:31:15.432Z,76.80
2017-07-05T10:33:45.683Z,81.40
2017-07-05T10:36:14.004Z,81.30
2017-07-05T10:38:44.288Z,81.00
2017-07-05T10:41:13.132Z,80.80
2017-07-05T10:43:44.379Z,79.80
2017-07-05T10:46:14.603Z,81.00
2017-07-05T10:48:45.213Z,80.70
2017-07-05T10:51:15.276Z,81.90
2017-07-05T10:53:46.171Z,81.00
2017-07-05T10:56:17.664Z,81.10
2017-07-05T10:58:48.952Z,80.30
2017-07-05T11:01:19.206Z,80.30
2017-07-05T11:03:48.181Z,80.80
2017-07-05T11:06:19.816Z,80.50
2017-07-05T11:08:49.616Z,80.20
2017-07-05T11:11:18.436Z,80.80
2017-07-05T11:13:48.213Z,81.10
2017-07-05T11:16:17.180Z,79.60
2017-07-05T11:18:46.912Z,80.80
2017-07-05T11:21:18.388Z,78.90
2017-07-05T11:23:49.736Z,78.80
2017-07-05T11:26:20.611Z,80.50
2017-07-05T11:28:50.136Z,79.80
2017-07-05T11:31:21.260Z,80.30
2017-07-05T11:33:51.847Z,79.20
2017-07-05T11:36:20.543Z,77.30
2017-07-05T11:38:49.019Z,80.20
2017-07-05T11:41:17.915Z,75.80
2017-07-05T11:43:47.652Z,76.80
2017-07-05T11:46:17.111Z,77.30
2017-07-05T11:48:45.315Z,74.00
2017-07-05T11:51:15.932Z,76.30
2017-07-05T11:53:46.571Z,75.20
2017-07-05T11:56:15.571Z,75.10
2017-07-05T11:58:44.856Z,74.50
2017-07-05T12:01:14.770Z,76.50
2017-07-05T12:03:46.084Z,77.10
2017-07-05T12:06:15.111Z,77.70
2017-07-05T12:08:44.841Z,77.70
2017-07-05T12:11:15.284Z,78.60
2017-07-05T12:13:44.356Z,80.10
2017-07-05T12:16:15.528Z,80.30
2017-07-05T12:18:46.375Z,80.30
2017-07-05T12:21:17.579Z,80.70
2017-07-05T12:23:48.552Z,79.30
2017-07-05T12:26:17.820Z,79.20
2017-07-05T12:28:47.900Z,81.30
2017-07-05T12:31:17.371Z,81.20
2017-07-05T12:33:46.960Z,82.20
2017-07-05T12:36:17.796Z,84.00
2017-07-05T12:38:48.671Z,85.60
2017-07-05T12:41:18.487Z,85.60
2017-07-05T12:43:48.023Z,85.60
2017-07-05T12:46:17.036Z,87.10
2017-07-05T12:48:47.268Z,87.70
2017-07-05T12:51:18.672Z,88.60
2017-07-05T12:53:47.872Z,88.50
2017-07-05T12:56:17.136Z,87.10
2017-07-05T12:58:46.420Z,87.70
2017-07-05T13:01:16.424Z,88.00
2017-07-05T13:03:46.520Z,89.60
2017-07-05T13:06:14.795Z,90.60
2017-07-05T13:08:46.651Z,91.50
2017-07-05T13:11:16.303Z,91.40
2017-07-05T13:13:46.031Z,90.90
2017-07-05T13:16:16.252Z,90.30
2017-07-05T13:18:44.364Z,90.30
2017-07-05T13:21:14.836Z,90.50
2017-07-05T13:23:45.154Z,90.20
2017-07-05T13:26:14.168Z,90.40
2017-07-05T13:28:44.020Z,90.50
2017-07-05T13:31:14.227Z,90.50
2017-07-05T13:33:44.373Z,91.30
2017-07-05T13:36:12.563Z,91.70
2017-07-05T13:38:43.365Z,91.00
2017-07-05T13:41:13.333Z,92.30
2017-07-05T13:43:43.809Z,93.00
2017-07-05T13:46:13.711Z,92.90
2017-07-05T13:48:43.573Z,93.00
2017-07-05T13:51:12.529Z,93.70
2017-07-05T13:53:43.912Z,94.00
2017-07-05T13:56:14.323Z,94.60
2017-07-05T13:58:43.468Z,94.80
2017-07-05T14:01:14.004Z,95.60
2017-07-05T14:03:43.716Z,96.30
2017-07-05T14:06:14.209Z,96.90
2017-07-05T14:08:44.109Z,97.00
2017-07-05T14:11:14.370Z,95.50
2017-07-05T14:13:44.687Z,95.70
2017-07-05T14:16:15.679Z,95.20
2017-07-05T14:18:45.799Z,95.10
2017-07-05T14:21:15.812Z,94.00
2017-07-05T14:23:45.511Z,92.80
2017-07-05T14:26:15.536Z,93.30
2017-07-05T14:28:45.967Z,95.70
2017-07-05T14:31:17.370Z,95.80
2017-07-05T14:33:47.551Z,95.80
2017-07-05T14:36:18.646Z,95.00
2017-07-05T14:38:48.475Z,94.50
2017-07-05T14:41:18.360Z,95.40
2017-07-05T14:43:48.768Z,96.00
2017-07-05T14:46:19.195Z,97.10
2017-07-05T14:48:49.010Z,98.10
2017-07-05T14:51:19.607Z,99.80
2017-07-05T14:53:50.896Z,99.90
2017-07-05T14:56:19.867Z,99.90
2017-07-05T14:58:49.055Z,99.90
2017-07-05T15:01:20.007Z,99.90
2017-07-05T15:03:50.367Z,99.90
2017-07-05T15:06:20.968Z,99.90
2017-07-05T15:08:50.044Z,99.90
2017-07-05T15:11:19.509Z,99.90
2017-07-05T15:13:49.304Z,99.90
2017-07-05T15:16:18.891Z,99.90
2017-07-05T15:18:47.391Z,99.90
2017-07-05T15:21:15.933Z,99.90
2017-07-05T15:23:46.487Z,99.90
2017-07-05T15:26:16.544Z,99.90
2017-07-05T15:28:45.897Z,99.90
2017-07-05T15:31:16.120Z,99.90
2017-07-05T15:33:45.176Z,99.90
2017-07-05T15:36:15.590Z,99.90
2017-07-05T15:38:44.571Z,99.90
2017-07-05T15:41:15.115Z,99.90
2017-07-05T15:43:44.995Z,99.90
2017-07-05T15:46:14.196Z,99.90
2017-07-05T15:48:42.392Z,99.90
2017-07-05T15:51:11.584Z,99.90
2017-07-05T15:53:40.863Z,99.90
2017-07-05T15:56:10.995Z,99.90
2017-07-05T15:58:41.671Z,99.90
2017-07-05T16:01:09.785Z,99.90
2017-07-05T16:03:38.684Z,99.90
2017-07-05T16:06:08.635Z,99.90
2017-07-05T16:08:38.972Z,99.90
2017-07-05T16:11:08.256Z,99.90
2017-07-05T16:13:38.452Z,99.90
2017-07-05T16:16:07.259Z,99.90
2017-07-05T16:18:37.620Z,99.90
2017-07-05T16:21:08.212Z,99.90
2017-07-05T16:23:37.799Z,99.90
2017-07-05T16:26:09.008Z,99.90
2017-07-05T16:28:38.892Z,99.90
2017-07-05T16:31:08.403Z,99.90
2017-07-05T16:33:37.847Z,99.90
2017-07-05T16:36:08.045Z,99.90
2017-07-05T16:38:37.753Z,99.90
2017-07-05T16:41:07.679Z,99.90
2017-07-05T16:43:37.744Z,99.90
2017-07-05T16:46:06.355Z,99.90
2017-07-05T16:48:37.099Z,99.90
2017-07-05T16:51:06.412Z,99.90
2017-07-05T16:53:35.608Z,99.90
2017-07-05T16:56:04.627Z,99.90
2017-07-05T16:58:34.675Z,99.90
2017-07-05T17:01:04.581Z,99.90
2017-07-05T17:03:34.718Z,99.90
2017-07-05T17:06:04.795Z,99.90
2017-07-05T17:08:35.032Z,99.90
2017-07-05T17:11:04.515Z,99.90
2017-07-05T17:13:33.920Z,99.90
2017-07-05T17:16:04.220Z,99.90
2017-07-05T17:18:34.981Z,99.90
2017-07-05T17:21:03.843Z,99.60
2017-07-05T17:23:32.936Z,99.40
2017-07-05T17:26:02.322Z,99.10
2017-07-05T17:28:32.016Z,98.10
2017-07-05T17:31:01.932Z,98.10
2017-07-05T17:33:31.047Z,97.80
2017-07-05T17:35:59.253Z,97.60
2017-07-05T17:38:28.395Z,97.70
2017-07-05T17:40:57.924Z,98.40
2017-07-05T17:43:28.583Z,99.20
2017-07-05T17:46:00.539Z,99.90
2017-07-05T17:48:29.628Z,99.90
2017-07-05T17:50:59.552Z,99.90
2017-07-05T17:53:29.816Z,99.90
2017-07-05T17:55:59.292Z,99.90
2017-07-05T17:58:28.380Z,99.90
2017-07-05T18:00:57.339Z,99.90
2017-07-05T18:03:26.228Z,99.90
2017-07-05T18:05:54.991Z,99.90
2017-07-05T18:08:23.835Z,99.90
2017-07-05T18:10:53.414Z,99.90
2017-07-05T18:13:22.412Z,99.90
2017-07-05T18:15:51.403Z,99.90
2017-07-05T18:18:19.911Z,99.90
2017-07-05T18:20:48.088Z,99.90
2017-07-05T18:23:16.315Z,99.90
2017-07-05T18:25:44.947Z,99.90
2017-07-05T18:28:14.296Z,99.90
2017-07-05T18:30:43.144Z,99.90
2017-07-05T18:33:12.444Z,99.90
2017-07-05T18:35:41.984Z,99.90
2017-07-05T18:38:10.300Z,99.90
2017-07-05T18:40:39.016Z,99.90
2017-07-05T18:43:08.365Z,99.90
2017-07-05T18:45:37.216Z,99.90
2017-07-05T18:48:06.512Z,99.90
2017-07-05T18:50:34.704Z,99.90
2017-07-05T18:53:03.665Z,99.90
2017-07-05T18:55:32.504Z,99.90
2017-07-05T18:58:01.219Z,99.90
2017-07-05T19:00:29.476Z,99.90
2017-07-05T19:02:58.204Z,99.90
2017-07-05T19:05:27.067Z,99.90
2017-07-05T19:07:55.679Z,99.90
2017-07-05T19:10:24.288Z,99.90
2017-07-05T19:12:53.529Z,99.90
2017-07-05T19:15:22.284Z,99.90
2017-07-05T19:17:51.580Z,99.90
2017-07-05T19:20:21.219Z,99.90
2017-07-05T19:22:49.939Z,99.90
2017-07-05T19:25:18.569Z,99.90
2017-07-05T19:27:48.204Z,99.90
2017-07-05T19:30:17.201Z,99.90
2017-07-05T19:32:45.812Z,99.90
2017-07-05T19:35:14.540Z,99.90
2017-07-05T19:37:44.333Z,99.90
2017-07-05T19:40:12.443Z,99.90
2017-07-05T19:42:41.119Z,99.90
2017-07-05T19:45:10.664Z,99.90
2017-07-05T19:47:39.407Z,99.90
2017-07-05T19:50:08.812Z,99.90
2017-07-05T19:52:38.503Z,99.90
2017-07-05T19:55:07.011Z,99.90
2017-07-05T19:57:36.547Z,99.90
2017-07-05T20:00:05.285Z,99.90
2017-07-05T20:02:33.434Z,99.90
2017-07-05T20:05:02.143Z,99.90
2017-07-05T20:07:30.975Z,99.90
2017-07-05T20:09:59.583Z,99.90
2017-07-05T20:12:28.244Z,99.90
2017-07-05T20:14:57.239Z,99.90
2017-07-05T20:17:25.943Z,99.90
2017-07-05T20:19:54.935Z,99.90
2017-07-05T20:22:23.831Z,99.90
2017-07-05T20:24:52.380Z,99.90
2017-07-05T20:27:20.556Z,99.90
2017-07-05T20:29:51.063Z,99.90
2017-07-05T20:32:19.827Z,99.90
2017-07-05T20:34:48.722Z,99.90
2017-07-05T20:37:17.535Z,99.90
2017-07-05T20:39:46.144Z,99.90
2017-07-05T20:42:15.487Z,99.90
2017-07-05T20:44:44.236Z,99.90
2017-07-05T20:47:13.690Z,99.90
2017-07-05T20:49:42.427Z,99.90
2017-07-05T20:52:10.711Z,99.90
2017-07-05T20:54:40.127Z,99.90
2017-07-05T20:57:08.853Z,99.90
2017-07-05T20:59:37.599Z,99.90
2017-07-05T21:02:06.171Z,99.90
2017-07-05T21:04:35.581Z,99.90
2017-07-05T21:07:05.303Z,99.90
2017-07-05T21:09:34.260Z,99.90
2017-07-05T21:12:02.426Z,99.90
2017-07-05T21:14:31.251Z,99.90
2017-07-05T21:17:00.547Z,99.90
2017-07-05T21:19:30.089Z,99.90
2017-07-05T21:21:58.451Z,99.90
2017-07-05T21:24:26.607Z,99.90
2017-07-05T21:26:56.016Z,99.90
2017-07-05T21:29:25.497Z,99.90
2017-07-05T21:31:54.108Z,99.90
2017-07-05T21:34:23.353Z,99.90
2017-07-05T21:36:52.196Z,99.90
2017-07-05T21:39:21.495Z,99.90
2017-07-05T21:41:50.956Z,99.90
2017-07-05T21:44:19.236Z,99.90
2017-07-05T21:46:47.888Z,99.90
2017-07-05T21:49:16.594Z,99.90
2017-07-05T21:51:45.261Z,99.90
2017-07-05T21:54:13.375Z,99.90
2017-07-05T21:56:42.139Z,99.90
2017-07-05T21:59:10.849Z,99.90
2017-07-05T22:01:39.415Z,99.90
2017-07-05T22:04:08.166Z,99.90
2017-07-05T22:06:37.547Z,99.90
2017-07-05T22:09:05.664Z,99.90
2017-07-05T22:11:34.291Z,99.90
2017-07-05T22:14:03.059Z,99.90
2017-07-05T22:16:31.810Z,99.90
2017-07-05T22:19:01.151Z,99.90
2017-07-05T22:21:30.004Z,99.90
2017-07-05T22:23:59.400Z,99.90
2017-07-05T22:26:28.760Z,99.90
2017-07-05T22:28:57.511Z,99.90
2017-07-05T22:31:25.703Z,99.90
2017-07-05T22:33:54.451Z,99.90
2017-07-05T22:36:23.972Z,99.90
2017-07-05T22:38:53.268Z,99.90
2017-07-05T22:41:22.829Z,99.90
2017-07-05T22:43:51.471Z,99.90
2017-07-05T22:46:20.898Z,99.90
2017-07-05T22:48:49.613Z,99.90
2017-07-05T22:51:19.145Z,99.90
2017-07-05T22:53:48.088Z,99.90
2017-07-05T22:56:16.255Z,99.90
2017-07-05T22:58:44.493Z,99.90
2017-07-05T23:01:12.651Z,99.90
2017-07-05T23:03:41.283Z,99.90
2017-07-05T23:06:10.280Z,99.90
2017-07-05T23:08:38.459Z,99.60
2017-07-05T23:11:06.725Z,99.20
2017-07-05T23:13:36.303Z,99.00
2017-07-05T23:16:04.928Z,99.00
2017-07-05T23:18:33.047Z,98.70
2017-07-05T23:21:01.921Z,98.40
2017-07-05T23:23:30.563Z,98.30
2017-07-05T23:25:59.907Z,98.00
2017-07-05T23:28:28.760Z,98.00
2017-07-05T23:30:58.096Z,97.70
2017-07-05T23:33:26.643Z,97.70
2017-07-05T23:35:56.223Z,97.20
2017-07-05T23:38:24.835Z,97.20
2017-07-05T23:40:54.185Z,97.60
2017-07-05T23:43:22.928Z,97.30
2017-07-05T23:45:52.271Z,97.00
2017-07-05T23:48:20.915Z,97.00
2017-07-05T23:50:49.201Z,97.00
2017-07-05T23:53:18.679Z,97.20
2017-07-05T23:55:47.253Z,97.20
2017-07-05T23:58:15.591Z,97.00
